createdAt,value
2023-04-07T00:00:42.027Z,12.50
2023-04-07T00:03:08.885Z,12.13
2023-04-07T00:05:35.615Z,12.10
2023-04-07T00:08:02.272Z,11.50
2023-04-07T00:10:28.989Z,12.00
2023-04-07T00:12:55.715Z,11.10
2023-04-07T00:15:22.381Z,12.87
2023-04-07T00:17:49.320Z,12.70
2023-04-07T00:20:16.180Z,12.30
2023-04-07T00:22:43.067Z,13.37
2023-04-07T00:25:10.639Z,12.70
2023-04-07T00:27:37.253Z,12.43
2023-04-07T00:30:04.277Z,12.57
2023-04-07T00:32:31.090Z,11.83
2023-04-07T00:34:57.694Z,12.23
2023-04-07T00:37:25.620Z,12.13
2023-04-07T00:39:52.381Z,11.70
2023-04-07T00:42:19.580Z,11.90
2023-04-07T00:44:46.167Z,12.10
2023-04-07T00:47:12.916Z,12.60
2023-04-07T00:49:39.583Z,12.03
2023-04-07T00:52:06.986Z,11.43
2023-04-07T00:54:33.617Z,11.63
2023-04-07T00:57:01.598Z,11.80
2023-04-07T00:59:31.201Z,11.83
2023-04-07T01:02:09.784Z,10.97
2023-04-07T01:05:07.633Z,10.97
2023-04-07T01:07:47.021Z,12.17
2023-04-07T01:10:21.260Z,11.73
2023-04-07T01:12:59.403Z,13.33
2023-04-07T01:15:29.895Z,12.10
2023-04-07T01:18:07.531Z,11.83
2023-04-07T01:20:36.187Z,12.43
2023-04-07T01:23:06.907Z,11.80
2023-04-07T01:26:03.504Z,11.43
2023-04-07T01:28:57.954Z,11.30
2023-04-07T01:31:26.875Z,12.20
2023-04-07T01:33:55.561Z,10.80
2023-04-07T01:36:23.286Z,11.83
2023-04-07T01:38:50.864Z,11.70
2023-04-07T01:41:18.423Z,10.93
2023-04-07T01:43:47.503Z,12.47
2023-04-07T01:46:14.942Z,11.27
2023-04-07T01:48:42.584Z,11.73
2023-04-07T01:51:11.935Z,12.90
2023-04-07T01:53:39.251Z,11.80
2023-04-07T01:56:06.543Z,10.47
2023-04-07T01:58:33.122Z,11.73
2023-04-07T02:00:59.957Z,11.73
2023-04-07T02:03:56.366Z,11.83
2023-04-07T02:06:28.079Z,12.63
2023-04-07T02:09:00.024Z,11.53
2023-04-07T02:11:32.422Z,11.13
2023-04-07T02:14:01.613Z,10.97
2023-04-07T02:16:31.123Z,11.50
2023-04-07T02:18:58.636Z,12.00
2023-04-07T02:21:27.569Z,12.50
2023-04-07T02:23:54.342Z,13.53
2023-04-07T02:26:21.365Z,12.60
2023-04-07T02:28:48.037Z,12.60
2023-04-07T02:31:14.748Z,12.43
2023-04-07T02:33:41.415Z,13.00
2023-04-07T02:36:08.093Z,12.37
2023-04-07T02:38:34.725Z,13.03
2023-04-07T02:41:01.389Z,12.70
2023-04-07T02:43:28.063Z,13.73
2023-04-07T02:45:55.091Z,13.10
2023-04-07T02:48:21.807Z,13.73
2023-04-07T02:50:48.481Z,12.93
2023-04-07T02:53:15.135Z,12.33
2023-04-07T02:55:42.046Z,13.57
2023-04-07T02:58:08.692Z,12.90
2023-04-07T03:00:35.478Z,13.27
2023-04-07T03:03:02.426Z,13.93
2023-04-07T03:05:29.202Z,12.93
2023-04-07T03:07:55.836Z,13.20
2023-04-07T03:10:22.749Z,13.03
2023-04-07T03:12:49.333Z,12.07
2023-04-07T03:15:18.629Z,12.57
2023-04-07T03:17:45.858Z,12.93
2023-04-07T03:20:12.983Z,13.47
2023-04-07T03:22:39.565Z,13.10
2023-04-07T03:25:06.505Z,13.60
2023-04-07T03:27:33.079Z,13.63
2023-04-07T03:29:59.703Z,12.70
2023-04-07T03:32:26.335Z,13.30
2023-04-07T03:34:53.034Z,13.13
2023-04-07T03:37:19.660Z,13.53
2023-04-07T03:39:46.407Z,13.33
2023-04-07T03:42:13.262Z,11.93
2023-04-07T03:44:39.942Z,11.77
2023-04-07T03:47:06.567Z,12.90
2023-04-07T03:49:33.274Z,12.93
2023-04-07T03:51:59.875Z,15.00
2023-04-07T03:54:26.591Z,13.57
2023-04-07T03:56:53.285Z,12.30
2023-04-07T03:59:27.505Z,11.77
2023-04-07T04:01:54.290Z,12.13
2023-04-07T04:04:20.989Z,11.53
2023-04-07T04:06:47.785Z,12.27
2023-04-07T04:09:14.829Z,12.30
2023-04-07T04:11:41.491Z,12.43
2023-04-07T04:14:08.527Z,13.13
2023-04-07T04:16:37.949Z,13.13
2023-04-07T04:19:04.583Z,11.93
2023-04-07T04:21:31.299Z,12.23
2023-04-07T04:23:57.953Z,11.33
2023-04-07T04:26:26.087Z,10.77
2023-04-07T04:28:53.108Z,13.10
2023-04-07T04:31:19.766Z,13.00
2023-04-07T04:33:46.606Z,12.63
2023-04-07T04:36:13.368Z,13.43
2023-04-07T04:38:40.408Z,12.63
2023-04-07T04:41:07.012Z,12.53
2023-04-07T04:43:33.608Z,12.20
2023-04-07T04:46:00.237Z,10.60
2023-04-07T04:48:27.250Z,13.07
2023-04-07T04:50:53.895Z,11.37
2023-04-07T04:53:20.502Z,11.07
2023-04-07T04:55:51.908Z,10.57
2023-04-07T04:58:20.580Z,12.50
2023-04-07T05:00:47.358Z,11.93
2023-04-07T05:03:14.263Z,10.50
2023-04-07T05:05:41.208Z,11.33
2023-04-07T05:08:10.681Z,12.60
2023-04-07T05:10:40.277Z,12.90
2023-04-07T05:13:06.845Z,11.00
2023-04-07T05:15:33.530Z,13.70
2023-04-07T05:18:00.361Z,12.30
2023-04-07T05:20:27.020Z,12.43
2023-04-07T05:22:53.662Z,12.63
2023-04-07T05:25:20.386Z,12.67
2023-04-07T05:27:46.971Z,12.20
2023-04-07T05:30:14.039Z,11.20
2023-04-07T05:32:40.797Z,10.60
2023-04-07T05:35:07.901Z,11.57
2023-04-07T05:37:34.495Z,10.03
2023-04-07T05:40:01.310Z,9.50
2023-04-07T05:42:27.903Z,10.13
2023-04-07T05:44:55.904Z,9.53
2023-04-07T05:47:22.568Z,10.87
2023-04-07T05:49:49.299Z,12.80
2023-04-07T05:52:15.979Z,11.63
2023-04-07T05:54:42.674Z,10.90
2023-04-07T05:57:09.403Z,11.50
2023-04-07T05:59:36.684Z,11.50
2023-04-07T06:02:04.079Z,11.60
2023-04-07T06:04:30.936Z,11.00
2023-04-07T06:06:57.671Z,11.00
2023-04-07T06:09:24.660Z,10.07
2023-04-07T06:11:51.409Z,10.37
2023-04-07T06:14:18.508Z,10.40
2023-04-07T06:16:45.710Z,11.17
2023-04-07T06:19:12.380Z,11.30
2023-04-07T06:21:39.968Z,9.97
2023-04-07T06:24:07.141Z,9.70
2023-04-07T06:26:33.924Z,10.33
2023-04-07T06:29:00.876Z,10.17
2023-04-07T06:31:28.076Z,10.80
2023-04-07T06:33:54.650Z,11.37
2023-04-07T06:36:21.853Z,10.03
2023-04-07T06:38:49.886Z,16.10
2023-04-07T06:41:19.277Z,13.20
2023-04-07T06:43:51.441Z,8.70
2023-04-07T06:46:19.670Z,9.07
2023-04-07T06:48:46.744Z,7.37
2023-04-07T06:51:13.609Z,8.77
2023-04-07T06:53:41.898Z,7.93
2023-04-07T06:56:12.115Z,9.70
2023-04-07T06:58:39.054Z,7.70
2023-04-07T07:01:06.683Z,9.20
2023-04-07T07:03:33.588Z,10.27
2023-04-07T07:06:01.053Z,9.83
2023-04-07T07:08:28.953Z,9.17
2023-04-07T07:10:56.084Z,9.50
2023-04-07T07:13:25.032Z,10.27
2023-04-07T07:15:51.834Z,10.00
2023-04-07T07:18:19.397Z,17.50
2023-04-07T07:20:46.518Z,10.97
2023-04-07T07:23:13.403Z,9.77
2023-04-07T07:25:40.446Z,8.80
2023-04-07T07:28:07.120Z,9.93
2023-04-07T07:30:33.772Z,10.60
2023-04-07T07:33:00.589Z,9.00
2023-04-07T07:35:27.374Z,22.47
2023-04-07T07:37:53.996Z,8.90
2023-04-07T07:40:20.873Z,9.47
2023-04-07T07:42:47.533Z,8.53
2023-04-07T07:45:14.427Z,7.80
2023-04-07T07:47:41.869Z,7.57
2023-04-07T07:50:08.869Z,7.83
2023-04-07T07:52:35.712Z,7.90
2023-04-07T07:55:02.372Z,7.03
2023-04-07T07:57:31.108Z,7.10
2023-04-07T07:59:57.854Z,6.73
2023-04-07T08:02:30.797Z,8.07
2023-04-07T08:04:58.018Z,6.60
2023-04-07T08:07:24.998Z,6.70
2023-04-07T08:09:51.957Z,10.67
2023-04-07T08:12:18.863Z,8.60
2023-04-07T08:14:45.738Z,6.80
2023-04-07T08:17:12.609Z,6.40
2023-04-07T08:19:39.264Z,6.70
2023-04-07T08:22:05.900Z,7.03
2023-04-07T08:24:32.485Z,5.80
2023-04-07T08:26:59.148Z,5.80
2023-04-07T08:29:25.893Z,6.13
2023-04-07T08:31:52.710Z,5.70
2023-04-07T08:34:21.104Z,6.03
2023-04-07T08:36:48.115Z,5.87
2023-04-07T08:39:14.697Z,6.20
2023-04-07T08:41:42.515Z,6.27
2023-04-07T08:44:10.908Z,5.50
2023-04-07T08:46:41.324Z,5.67
2023-04-07T08:49:10.355Z,5.30
2023-04-07T08:51:38.697Z,4.60
2023-04-07T08:54:09.598Z,5.17
2023-04-07T08:56:40.238Z,5.90
2023-04-07T08:59:09.095Z,4.27
2023-04-07T09:01:37.044Z,5.80
2023-04-07T09:04:05.259Z,10.77
2023-04-07T09:06:32.439Z,5.97
2023-04-07T09:08:59.696Z,4.53
2023-04-07T09:11:30.659Z,3.73
2023-04-07T09:13:57.435Z,3.90
2023-04-07T09:16:24.737Z,4.77
2023-04-07T09:18:52.973Z,4.30
2023-04-07T09:21:19.718Z,4.10
2023-04-07T09:23:47.969Z,3.53
2023-04-07T09:26:28.331Z,4.10
2023-04-07T09:28:59.384Z,3.80
2023-04-07T09:31:52.752Z,4.20
2023-04-07T09:34:26.912Z,4.43
2023-04-07T09:36:54.168Z,3.97
2023-04-07T09:39:21.067Z,4.37
2023-04-07T09:41:47.738Z,4.27
2023-04-07T09:44:14.487Z,5.50
2023-04-07T09:46:54.374Z,5.40
2023-04-07T09:49:21.329Z,4.70
2023-04-07T09:52:05.207Z,5.57
2023-04-07T09:54:35.932Z,5.00
2023-04-07T09:57:10.996Z,5.70
2023-04-07T09:59:45.148Z,5.57
2023-04-07T10:02:12.512Z,6.17
2023-04-07T10:04:40.800Z,6.83
2023-04-07T10:07:07.489Z,7.27
2023-04-07T10:09:34.148Z,7.40
2023-04-07T10:12:01.115Z,5.53
2023-04-07T10:14:30.938Z,5.90
2023-04-07T10:17:03.256Z,6.43
2023-04-07T10:19:34.736Z,7.33
2023-04-07T10:22:02.860Z,6.60
2023-04-07T10:24:47.057Z,6.70
2023-04-07T10:27:19.468Z,7.40
2023-04-07T10:29:49.074Z,6.90
2023-04-07T10:32:15.946Z,6.93
2023-04-07T10:34:51.151Z,7.40
2023-04-07T10:37:21.146Z,7.60
2023-04-07T10:39:49.326Z,7.73
2023-04-07T10:42:56.545Z,7.77
2023-04-07T10:45:56.083Z,8.40
2023-04-07T10:48:23.334Z,6.50
2023-04-07T10:51:04.960Z,9.70
2023-04-07T10:53:32.138Z,8.30
2023-04-07T10:56:01.605Z,7.33
2023-04-07T10:58:34.569Z,7.00
2023-04-07T11:01:04.754Z,6.93
2023-04-07T11:03:34.088Z,7.57
2023-04-07T11:06:08.378Z,6.53
2023-04-07T11:08:39.130Z,6.97
2023-04-07T11:11:09.271Z,6.40
2023-04-07T11:13:47.521Z,6.87
2023-04-07T11:16:16.579Z,7.70
2023-04-07T11:18:44.396Z,6.80
2023-04-07T11:21:11.083Z,8.20
2023-04-07T11:23:42.505Z,7.97
2023-04-07T11:26:12.398Z,6.90
2023-04-07T11:28:49.205Z,6.60
2023-04-07T11:31:24.347Z,5.60
2023-04-07T11:33:59.885Z,7.20
2023-04-07T11:36:34.287Z,6.93
2023-04-07T11:39:02.367Z,6.43
2023-04-07T11:41:32.593Z,7.30
2023-04-07T11:44:12.509Z,6.50
2023-04-07T11:46:53.847Z,7.20
2023-04-07T11:49:20.666Z,9.73
2023-04-07T11:51:47.450Z,7.70
2023-04-07T11:54:14.191Z,6.10
2023-04-07T11:56:46.100Z,8.47
2023-04-07T11:59:25.881Z,8.73
2023-04-07T12:01:56.054Z,8.33
2023-04-07T12:04:24.424Z,8.30
2023-04-07T12:06:51.465Z,10.40
2023-04-07T12:09:36.254Z,7.80
2023-04-07T12:12:08.396Z,6.90
2023-04-07T12:14:36.112Z,5.20
2023-04-07T12:17:03.940Z,5.53
2023-04-07T12:19:39.465Z,6.27
2023-04-07T12:22:06.339Z,5.70
2023-04-07T12:24:33.059Z,4.73
2023-04-07T12:26:59.956Z,4.87
2023-04-07T12:29:26.754Z,5.23
2023-04-07T12:31:53.558Z,4.13
2023-04-07T12:34:20.597Z,5.07
2023-04-07T12:36:47.477Z,4.90
2023-04-07T12:39:14.855Z,5.67
2023-04-07T12:41:42.035Z,4.20
2023-04-07T12:44:09.429Z,4.33
2023-04-07T12:46:36.308Z,5.17
2023-04-07T12:49:03.522Z,5.80
2023-04-07T12:51:33.457Z,5.87
2023-04-07T12:54:03.867Z,6.40
2023-04-07T12:56:30.667Z,6.20
2023-04-07T12:58:57.360Z,5.53
2023-04-07T13:01:24.169Z,6.67
2023-04-07T13:03:51.360Z,5.60
2023-04-07T13:06:19.143Z,5.27
2023-04-07T13:08:45.862Z,6.00
2023-04-07T13:11:12.483Z,5.73
2023-04-07T13:13:39.131Z,5.93
2023-04-07T13:16:08.533Z,7.90
2023-04-07T13:18:35.321Z,6.83
2023-04-07T13:21:26.342Z,6.10
2023-04-07T13:23:51.612Z,6.03
2023-04-07T13:26:18.244Z,5.50
2023-04-07T13:28:46.115Z,6.93
2023-04-07T13:31:16.301Z,7.80
2023-04-07T13:33:43.244Z,8.23
2023-04-07T13:36:10.170Z,7.43
2023-04-07T13:38:36.964Z,7.83
2023-04-07T13:41:04.048Z,7.70
2023-04-07T13:43:30.714Z,7.00
2023-04-07T13:45:57.448Z,7.40
2023-04-07T13:48:24.090Z,8.10
2023-04-07T13:50:50.804Z,7.87
2023-04-07T13:53:19.094Z,7.93
2023-04-07T13:55:46.095Z,7.77
2023-04-07T13:58:12.846Z,8.33
2023-04-07T14:00:40.294Z,8.73
2023-04-07T14:03:07.973Z,8.70
2023-04-07T14:05:35.834Z,9.47
2023-04-07T14:08:02.589Z,7.70
2023-04-07T14:10:29.363Z,7.60
2023-04-07T14:12:56.264Z,8.03
2023-04-07T14:15:23.027Z,9.70
2023-04-07T14:17:49.779Z,8.80
2023-04-07T14:20:16.675Z,9.00
2023-04-07T14:22:43.300Z,7.70
2023-04-07T14:25:11.439Z,7.73
2023-04-07T14:27:38.077Z,9.43
2023-04-07T14:30:06.273Z,8.87
2023-04-07T14:32:34.248Z,9.40
2023-04-07T14:35:01.395Z,8.77
2023-04-07T14:37:29.005Z,8.20
2023-04-07T14:42:25.916Z,9.70
2023-04-07T14:44:53.084Z,8.90
2023-04-07T14:47:20.056Z,9.07
2023-04-07T14:49:47.190Z,10.40
2023-04-07T14:52:14.092Z,11.03
2023-04-07T14:54:40.722Z,9.30
2023-04-07T14:57:07.351Z,9.97
2023-04-07T14:59:34.241Z,10.73
2023-04-07T15:02:00.994Z,10.60
2023-04-07T15:04:27.706Z,10.93
2023-04-07T15:06:54.468Z,13.07
2023-04-07T15:09:21.269Z,11.00
2023-04-07T15:11:47.865Z,11.40
2023-04-07T15:14:14.969Z,12.07
2023-04-07T15:16:41.679Z,10.90
2023-04-07T15:19:08.300Z,10.43
2023-04-07T15:21:34.864Z,10.90
2023-04-07T15:24:01.466Z,9.37
2023-04-07T15:26:28.061Z,9.40
2023-04-07T15:28:54.638Z,10.10
2023-04-07T15:31:23.216Z,9.57
2023-04-07T15:33:50.164Z,8.97
2023-04-07T15:36:17.039Z,9.60
2023-04-07T15:38:43.696Z,9.13
2023-04-07T15:41:14.451Z,9.53
2023-04-07T15:43:41.037Z,10.60
2023-04-07T15:46:07.853Z,10.30
2023-04-07T15:48:34.583Z,11.13
2023-04-07T15:51:01.229Z,9.70
2023-04-07T15:53:27.868Z,10.70
2023-04-07T15:55:54.930Z,11.70
2023-04-07T15:58:21.563Z,10.90
2023-04-07T16:00:48.294Z,12.47
2023-04-07T16:03:15.427Z,11.90
2023-04-07T16:05:42.350Z,10.67
2023-04-07T16:08:08.938Z,12.23
2023-04-07T16:10:35.895Z,11.10
2023-04-07T16:13:02.528Z,12.80
2023-04-07T16:15:39.934Z,11.30
2023-04-07T16:18:09.558Z,12.43
2023-04-07T16:20:36.214Z,10.20
2023-04-07T16:23:02.833Z,10.50
2023-04-07T16:25:29.617Z,12.23
2023-04-07T16:27:56.321Z,11.37
2023-04-07T16:30:24.974Z,11.57
2023-04-07T16:32:51.644Z,11.60
2023-04-07T16:35:18.400Z,12.00
2023-04-07T16:37:49.777Z,16.70
2023-04-07T16:40:16.837Z,12.90
2023-04-07T16:42:43.538Z,11.67
2023-04-07T16:45:11.114Z,14.80
2023-04-07T16:47:38.228Z,13.47
2023-04-07T16:50:05.758Z,11.60
2023-04-07T16:52:32.652Z,12.07
2023-04-07T16:55:00.742Z,11.90
2023-04-07T16:57:27.491Z,9.97
2023-04-07T16:59:54.133Z,11.93
2023-04-07T17:02:20.827Z,11.97
2023-04-07T17:04:47.694Z,11.90
2023-04-07T17:07:14.361Z,11.20
2023-04-07T17:09:41.195Z,11.20
2023-04-07T17:12:07.951Z,14.17
2023-04-07T17:14:34.642Z,12.37
2023-04-07T17:17:01.800Z,12.73
2023-04-07T17:19:28.650Z,11.50
2023-04-07T17:21:55.312Z,11.97
2023-04-07T17:24:22.667Z,12.53
2023-04-07T17:26:49.577Z,12.73
2023-04-07T17:29:17.090Z,11.40
2023-04-07T17:31:44.213Z,13.33
2023-04-07T17:34:11.755Z,12.20
2023-04-07T17:36:38.562Z,13.77
2023-04-07T17:39:05.579Z,12.30
2023-04-07T17:41:35.514Z,11.83
2023-04-07T17:44:02.401Z,12.60
2023-04-07T17:46:29.331Z,11.90
2023-04-07T17:48:58.998Z,11.97
2023-04-07T17:51:26.741Z,11.20
2023-04-07T17:53:54.087Z,12.63
2023-04-07T17:56:21.357Z,10.60
2023-04-07T17:58:48.440Z,10.67
2023-04-07T18:01:16.600Z,11.30
2023-04-07T18:03:43.668Z,10.70
2023-04-07T18:06:14.619Z,11.67
2023-04-07T18:08:41.526Z,12.77
2023-04-07T18:11:08.191Z,11.80
2023-04-07T18:13:34.843Z,10.97
2023-04-07T18:16:01.509Z,12.27
2023-04-07T18:18:28.317Z,13.60
2023-04-07T18:20:55.068Z,13.20
2023-04-07T18:23:21.894Z,12.87
2023-04-07T18:25:49.412Z,13.00
2023-04-07T18:28:17.008Z,13.33
2023-04-07T18:30:43.945Z,12.17
2023-04-07T18:33:10.613Z,12.13
2023-04-07T18:35:37.615Z,13.57
2023-04-07T18:38:04.717Z,13.47
2023-04-07T18:40:33.272Z,12.43
2023-04-07T18:43:00.013Z,10.70
2023-04-07T18:45:26.774Z,13.47
2023-04-07T18:47:53.465Z,14.00
2023-04-07T18:50:20.165Z,14.17
2023-04-07T18:52:46.765Z,14.33
2023-04-07T18:55:13.874Z,14.10
2023-04-07T18:57:40.585Z,12.47
2023-04-07T19:00:08.545Z,13.00
2023-04-07T19:02:35.492Z,12.70
2023-04-07T19:05:02.547Z,13.00
2023-04-07T19:07:29.172Z,15.90
2023-04-07T19:09:55.919Z,14.50
2023-04-07T19:12:22.570Z,13.20
2023-04-07T19:14:49.195Z,11.97
2023-04-07T19:17:16.376Z,11.20
2023-04-07T19:19:43.023Z,11.90
2023-04-07T19:22:09.935Z,11.50
2023-04-07T19:24:36.710Z,11.90
2023-04-07T19:27:04.172Z,12.67
2023-04-07T19:29:31.381Z,11.80
2023-04-07T19:31:58.058Z,12.23
2023-04-07T19:34:24.670Z,12.50
2023-04-07T19:36:51.602Z,11.50
2023-04-07T19:39:18.291Z,12.50
2023-04-07T19:41:44.958Z,12.40
2023-04-07T19:44:11.846Z,10.60
2023-04-07T19:46:38.558Z,10.77
2023-04-07T19:49:05.153Z,9.57
2023-04-07T19:51:32.992Z,10.10
2023-04-07T19:53:59.699Z,9.53
2023-04-07T19:56:26.322Z,10.70
2023-04-07T19:58:53.220Z,9.97
2023-04-07T20:01:20.015Z,9.70
2023-04-07T20:03:46.813Z,10.37
2023-04-07T20:06:15.052Z,11.37
2023-04-07T20:08:42.390Z,11.47
2023-04-07T20:11:13.112Z,10.67
2023-04-07T20:13:41.044Z,10.00
2023-04-07T20:16:07.937Z,11.03
2023-04-07T20:18:34.655Z,9.90
2023-04-07T20:21:02.231Z,9.20
2023-04-07T20:23:28.836Z,10.10
2023-04-07T20:25:55.581Z,9.43
2023-04-07T20:28:22.689Z,9.37
2023-04-07T20:30:49.392Z,9.07
2023-04-07T20:33:16.219Z,7.57
2023-04-07T20:35:43.173Z,9.53
2023-04-07T20:38:09.850Z,8.63
2023-04-07T20:40:37.002Z,10.33
2023-04-07T20:43:04.655Z,10.70
2023-04-07T20:45:33.058Z,9.00
2023-04-07T20:48:00.075Z,9.63
2023-04-07T20:50:26.935Z,10.50
2023-04-07T20:52:53.757Z,9.67
2023-04-07T20:55:21.006Z,10.80
2023-04-07T20:57:48.256Z,11.17
2023-04-07T21:00:15.986Z,10.93
2023-04-07T21:02:44.547Z,10.67
2023-04-07T21:05:11.229Z,9.43
2023-04-07T21:07:37.860Z,13.27
2023-04-07T21:10:05.408Z,16.30
2023-04-07T21:12:32.131Z,14.70
2023-04-07T21:14:58.757Z,12.63
2023-04-07T21:17:25.409Z,11.00
2023-04-07T21:19:52.301Z,12.10
2023-04-07T21:22:18.915Z,12.47
2023-04-07T21:24:45.716Z,10.97
2023-04-07T21:27:13.599Z,9.57
2023-04-07T21:29:42.438Z,10.83
2023-04-07T21:32:09.567Z,11.70
2023-04-07T21:34:36.197Z,11.53
2023-04-07T21:37:02.918Z,10.23
2023-04-07T21:39:29.487Z,10.37
2023-04-07T21:41:57.262Z,9.67
2023-04-07T21:44:23.977Z,10.40
2023-04-07T21:46:50.681Z,11.23
2023-04-07T21:49:21.867Z,11.10
2023-04-07T21:51:48.945Z,10.77
2023-04-07T21:54:15.921Z,12.43
2023-04-07T21:56:42.894Z,13.93
2023-04-07T21:59:09.496Z,15.73
2023-04-07T22:01:36.205Z,19.70
2023-04-07T22:04:02.965Z,23.50
2023-04-07T22:06:31.331Z,23.80
2023-04-07T22:09:01.802Z,22.30
2023-04-07T22:11:29.546Z,22.90
2023-04-07T22:13:56.282Z,21.90
2023-04-07T22:16:22.957Z,21.43
2023-04-07T22:18:50.357Z,24.43
2023-04-07T22:21:17.385Z,23.30
2023-04-07T22:23:44.665Z,24.00
2023-04-07T22:26:11.347Z,23.07
2023-04-07T22:28:37.927Z,24.57
2023-04-07T22:31:04.727Z,23.40
2023-04-07T22:33:31.676Z,24.47
2023-04-07T22:35:58.554Z,23.07
2023-04-07T22:38:25.268Z,20.27
2023-04-07T22:40:51.927Z,23.40
2023-04-07T22:43:18.666Z,24.10
2023-04-07T22:45:45.303Z,22.93
2023-04-07T22:48:12.439Z,21.17
2023-04-07T22:50:39.096Z,25.90
2023-04-07T22:53:07.252Z,23.47
2023-04-07T22:55:34.918Z,22.60
2023-04-07T22:58:01.747Z,26.00
2023-04-07T23:00:28.392Z,23.47
2023-04-07T23:02:55.169Z,24.97
2023-04-07T23:05:21.938Z,24.10
2023-04-07T23:07:48.636Z,23.67
2023-04-07T23:10:15.547Z,23.20
2023-04-07T23:12:42.423Z,23.87
2023-04-07T23:15:09.388Z,24.17
2023-04-07T23:17:36.747Z,24.47
2023-04-07T23:20:03.836Z,23.20
2023-04-07T23:22:30.652Z,21.13
2023-04-07T23:24:57.275Z,21.57
2023-04-07T23:27:23.928Z,24.67
2023-04-07T23:29:51.372Z,23.13
2023-04-07T23:32:18.341Z,23.73
2023-04-07T23:34:45.014Z,22.30
2023-04-07T23:37:11.615Z,21.87
2023-04-07T23:39:39.115Z,22.20
2023-04-07T23:42:05.751Z,22.50
2023-04-07T23:44:32.417Z,23.60
2023-04-07T23:46:59.140Z,22.90
2023-04-07T23:49:26.089Z,21.90
2023-04-07T23:51:52.687Z,21.20
2023-04-07T23:54:19.287Z,20.93
2023-04-07T23:56:45.930Z,21.57
2023-04-07T23:59:13.226Z,21.10
